Time;durP1;ratioP1;P1;durP2;ratioP2;P2;SDS_P1;SDS_P2;PMS_P1;PMS_P2;Temp;Humidity;BMP_temperature;BMP_pressure;BME280_temperature;BME280_humidity;BME280_pressure;Samples;Min_cycle;Max_cycle;Signal;HPM_P1;HPM_P2
2024/01/14 00:02:05;;;;;;;68.78;30.98;;;;;;;1.05;100.00;101553.06;5048995;28;20033;-77
2024/01/14 00:04:30;;;;;;;66.25;30.45;;;;;;;1.06;100.00;101557.34;5049952;28;20515;-76
2024/01/14 00:06:56;;;;;;;65.80;28.35;;;;;;;1.03;100.00;101555.78;5049969;28;20036;-77
2024/01/14 00:09:21;;;;;;;64.45;34.35;;;;;;;1.00;100.00;101544.69;5050027;28;20036;-77
2024/01/14 00:11:48;;;;;;;62.05;29.23;;;;;;;1.05;100.00;101550.44;5050004;28;20388;-77
2024/01/14 00:14:13;;;;;;;65.50;34.65;;;;;;;1.06;100.00;101560.78;5050288;28;20025;-78
2024/01/14 00:16:39;;;;;;;61.88;28.75;;;;;;;1.05;100.00;101556.50;5048744;28;20541;-77
2024/01/14 00:19:09;;;;;;;61.15;31.40;;;;;;;1.06;100.00;101544.22;5049936;28;20064;-77
2024/01/14 00:21:35;;;;;;;70.88;34.88;;;;;;;1.06;100.00;101544.22;5050060;28;20033;-77
2024/01/14 00:24:01;;;;;;;70.15;31.23;;;;;;;1.05;100.00;101542.53;5049608;28;20040;-77
2024/01/14 00:26:28;;;;;;;63.53;33.15;;;;;;;1.07;100.00;101544.09;5049891;28;20044;-77
2024/01/14 00:28:55;;;;;;;61.28;29.05;;;;;;;1.07;100.00;101543.25;5048630;28;20025;-77
2024/01/14 00:31:21;;;;;;;64.18;30.52;;;;;;;1.09;100.00;101539.53;5049868;28;20036;-77
2024/01/14 00:33:49;;;;;;;64.10;32.35;;;;;;;1.03;100.00;101529.50;5049770;28;20373;-77
2024/01/14 00:36:14;;;;;;;61.80;30.55;;;;;;;1.07;100.00;101528.34;5049754;28;20546;-77
2024/01/14 00:38:39;;;;;;;60.45;27.30;;;;;;;1.08;100.00;101521.28;5049675;28;20044;-77
2024/01/14 00:41:05;;;;;;;66.07;28.40;;;;;;;1.07;100.00;101523.09;5049795;28;20033;-77
2024/01/14 00:43:30;;;;;;;72.30;31.00;;;;;;;1.07;100.00;101520.47;5049796;28;20036;-76
2024/01/14 00:45:56;;;;;;;51.65;29.15;;;;;;;1.05;100.00;101519.75;5048369;28;20045;-77
2024/01/14 00:48:21;;;;;;;67.40;30.13;;;;;;;1.04;100.00;101519.84;5049623;28;20064;-77
2024/01/14 00:50:47;;;;;;;55.72;27.60;;;;;;;1.04;100.00;101506.72;5049532;28;20056;-77
2024/01/14 00:53:12;;;;;;;65.07;30.10;;;;;;;1.09;100.00;101520.31;5049732;28;20025;-76
2024/01/14 00:55:37;;;;;;;60.42;28.90;;;;;;;1.10;100.00;101516.72;5049441;28;20037;-77
2024/01/14 00:58:03;;;;;;;51.15;25.02;;;;;;;1.05;100.00;101511.03;5049319;28;20075;-77
2024/01/14 01:00:30;;;;;;;70.15;30.55;;;;;;;1.11;100.00;101509.72;5048351;28;20533;-77
2024/01/14 01:02:55;;;;;;;63.28;28.27;;;;;;;1.08;100.00;101506.34;5049472;28;20044;-77
2024/01/14 01:05:21;;;;;;;64.35;29.25;;;;;;;1.10;100.00;101500.97;5049409;28;20057;-77
2024/01/14 01:07:46;;;;;;;64.72;28.00;;;;;;;1.13;100.00;101498.13;5049586;28;20395;-77
2024/01/14 01:10:12;;;;;;;59.38;28.80;;;;;;;1.11;100.00;101492.16;5048211;28;20404;-77
2024/01/14 01:12:38;;;;;;;73.10;32.08;;;;;;;1.15;100.00;101492.75;5049428;28;20029;-77
2024/01/14 01:15:07;;;;;;;59.30;28.38;;;;;;;1.16;100.00;101497.06;5049506;28;20029;-77
2024/01/14 01:17:33;;;;;;;61.95;26.05;;;;;;;1.16;100.00;101497.88;5049007;28;20044;-77
2024/01/14 01:19:59;;;;;;;55.53;26.42;;;;;;;1.14;100.00;101484.03;5048012;28;20033;-76
2024/01/14 01:22:25;;;;;;;65.88;28.77;;;;;;;1.11;100.00;101475.56;5049280;28;20056;-76
2024/01/14 01:24:50;;;;;;;63.53;29.13;;;;;;;1.11;100.00;101486.06;5043182;28;20120;-76
2024/01/14 01:27:16;;;;;;;62.25;29.30;;;;;;;1.13;100.00;101492.88;5049323;28;20564;-77
2024/01/14 01:29:42;;;;;;;49.22;22.90;;;;;;;1.14;100.00;101491.09;5049174;28;20068;-77
2024/01/14 01:32:08;;;;;;;56.13;28.95;;;;;;;1.16;100.00;101481.28;5049264;28;20037;-77
2024/01/14 01:34:33;;;;;;;56.00;28.00;;;;;;;1.13;100.00;101466.59;5049187;28;20029;-78
2024/01/14 01:36:58;;;;;;;59.95;26.30;;;;;;;1.16;100.00;101458.47;5052328;28;20495;-77
2024/01/14 01:39:24;;;;;;;53.38;25.67;;;;;;;1.13;100.00;101461.34;5052857;28;20033;-77
2024/01/14 01:41:51;;;;;;;62.83;29.20;;;;;;;1.13;100.00;101458.72;5052874;28;20036;-76
2024/01/14 01:44:16;;;;;;;57.15;27.10;;;;;;;1.14;100.00;101462.19;5052443;28;20502;-77
2024/01/14 01:46:42;;;;;;;66.47;30.83;;;;;;;1.14;100.00;101455.13;5052633;28;20029;-77
2024/01/14 01:49:09;;;;;;;55.45;25.98;;;;;;;1.14;100.00;101443.78;5052480;28;20017;-77
2024/01/14 01:51:36;;;;;;;57.28;27.58;;;;;;;1.13;100.00;101445.59;5052579;28;20032;-76
2024/01/14 01:54:01;;;;;;;50.63;25.55;;;;;;;1.08;100.00;101442.50;5052441;28;20127;-77
2024/01/14 01:56:27;;;;;;;49.17;23.10;;;;;;;1.10;100.00;101443.19;5052849;28;20116;-77
2024/01/14 01:58:53;;;;;;;57.30;27.70;;;;;;;1.03;100.00;101444.63;5050916;28;20068;-77
2024/01/14 02:01:21;;;;;;;52.20;29.13;;;;;;;1.11;100.00;101460.63;5051117;28;20537;-77
2024/01/14 02:03:50;;;;;;;52.03;26.35;;;;;;;1.11;100.00;101451.91;5052398;28;20395;-77
2024/01/14 02:06:16;;;;;;;53.47;27.20;;;;;;;1.13;100.00;101445.59;5052144;28;20173;-77
2024/01/14 02:08:41;;;;;;;45.38;22.45;;;;;;;1.11;100.00;101447.50;5052237;28;20017;-77
2024/01/14 02:11:07;;;;;;;45.30;20.90;;;;;;;1.08;100.00;101437.22;5052281;28;20033;-77
2024/01/14 02:13:33;;;;;;;47.65;24.45;;;;;;;1.11;100.00;101437.00;5051095;28;20155;-77
2024/01/14 02:15:58;;;;;;;49.85;21.33;;;;;;;1.04;100.00;101417.41;5052257;28;20116;-77
2024/01/14 02:18:24;;;;;;;52.13;24.13;;;;;;;1.02;100.00;101435.94;5050821;28;20502;-77
2024/01/14 02:20:50;;;;;;;50.72;21.45;;;;;;;1.02;100.00;101428.06;5050793;28;20170;-77
2024/01/14 02:23:20;;;;;;;44.97;23.13;;;;;;;1.01;100.00;101426.38;5050883;28;20079;-76
2024/01/14 02:25:46;;;;;;;49.28;24.17;;;;;;;1.01;100.00;101423.72;5051820;28;20037;-77
2024/01/14 02:28:12;;;;;;;53.45;26.73;;;;;;;1.03;100.00;101419.19;5052741;28;20081;-77
2024/01/14 02:30:39;;;;;;;57.03;27.08;;;;;;;1.03;100.00;101421.00;5050624;28;20111;-77
2024/01/14 02:33:04;;;;;;;47.55;24.23;;;;;;;0.99;100.00;101409.06;5051807;28;20041;-77
2024/01/14 02:35:29;;;;;;;56.30;25.00;;;;;;;1.05;100.00;101421.72;5051846;28;20401;-77
2024/01/14 02:37:55;;;;;;;56.83;27.38;;;;;;;1.05;100.00;101424.34;5051734;28;20174;-77
2024/01/14 02:40:21;;;;;;;52.90;25.60;;;;;;;1.03;100.00;101413.13;5051604;28;20029;-77
2024/01/14 02:42:46;;;;;;;57.35;28.67;;;;;;;1.04;100.00;101420.88;5051531;28;20059;-77
2024/01/14 02:45:12;;;;;;;59.42;30.05;;;;;;;1.06;100.00;101412.88;5051736;28;20044;-78
2024/01/14 02:47:37;;;;;;;52.83;24.50;;;;;;;1.03;100.00;101410.50;5051303;28;20033;-77
2024/01/14 02:50:03;;;;;;;53.53;26.98;;;;;;;1.05;100.00;101408.59;5051539;28;20025;-77
2024/01/14 02:52:28;;;;;;;55.63;26.23;;;;;;;1.01;100.00;101389.59;5051570;28;20029;-77
2024/01/14 02:54:54;;;;;;;59.13;28.67;;;;;;;1.05;100.00;101392.84;5050253;28;20496;-77
2024/01/14 02:57:19;;;;;;;56.10;31.05;;;;;;;1.04;100.00;101389.34;5051457;28;20396;-77
2024/01/14 02:59:44;;;;;;;51.53;26.77;;;;;;;1.01;100.00;101384.34;5051319;28;20056;-77
2024/01/14 03:02:10;;;;;;;50.28;25.48;;;;;;;1.05;100.00;101390.19;5051338;28;20036;-77
2024/01/14 03:04:35;;;;;;;58.17;30.25;;;;;;;1.03;100.00;101379.81;5051088;28;20053;-77
2024/01/14 03:07:00;;;;;;;58.85;29.05;;;;;;;1.05;100.00;101387.56;5051134;28;20119;-77
2024/01/14 03:09:26;;;;;;;51.95;24.52;;;;;;;1.05;100.00;101379.69;5049885;28;20025;-77
2024/01/14 03:11:51;;;;;;;48.70;24.73;;;;;;;1.04;100.00;101378.00;5051031;28;20037;-77
2024/01/14 03:14:16;;;;;;;72.40;30.63;;;;;;;1.04;100.00;101378.00;5051233;28;20032;-77
2024/01/14 03:16:43;;;;;;;59.30;30.88;;;;;;;1.03;100.00;101377.19;5051121;28;20507;-77
2024/01/14 03:19:09;;;;;;;58.83;28.48;;;;;;;1.04;100.00;101368.34;5051198;28;20029;-77
2024/01/14 03:21:34;;;;;;;67.85;29.67;;;;;;;1.04;100.00;101375.38;5051129;28;20119;-77
2024/01/14 03:24:00;;;;;;;55.40;29.40;;;;;;;1.00;100.00;101372.19;5051016;28;20124;-77
2024/01/14 03:26:25;;;;;;;68.03;29.58;;;;;;;1.06;100.00;101376.94;5050144;28;20105;-77
2024/01/14 03:28:50;;;;;;;56.50;27.45;;;;;;;1.05;100.00;101372.66;5049652;28;20580;-77
2024/01/14 03:31:16;;;;;;;45.83;21.77;;;;;;;1.02;100.00;101362.38;5050946;28;20056;-77
2024/01/14 03:33:42;;;;;;;58.80;28.83;;;;;;;1.03;100.00;101365.84;5050832;28;20025;-77
2024/01/14 03:36:08;;;;;;;50.53;25.42;;;;;;;1.01;100.00;101365.13;5050729;28;20063;-77
2024/01/14 03:38:33;;;;;;;52.15;24.80;;;;;;;1.05;100.00;101358.69;5050622;28;20408;-77
2024/01/14 03:40:59;;;;;;;50.28;24.23;;;;;;;1.05;100.00;101361.31;5049065;28;20037;-77
2024/01/14 03:43:24;;;;;;;47.03;24.25;;;;;;;1.04;100.00;101357.00;5049314;28;20476;-77
2024/01/14 03:45:50;;;;;;;52.20;24.98;;;;;;;0.98;100.00;101350.44;5050489;28;20029;-77
2024/01/14 03:48:15;;;;;;;44.22;22.25;;;;;;;1.04;100.00;101357.00;5050568;28;20053;-77
2024/01/14 03:50:40;;;;;;;53.10;25.88;;;;;;;1.02;100.00;101346.63;5050472;28;20037;-77
2024/01/14 03:53:07;;;;;;;47.85;23.15;;;;;;;1.02;100.00;101354.50;5050421;28;20025;-77
2024/01/14 03:55:32;;;;;;;48.50;24.42;;;;;;;0.98;100.00;101342.56;5050383;28;20028;-77
2024/01/14 03:57:58;;;;;;;58.25;26.42;;;;;;;1.01;100.00;101342.31;5049648;28;20033;-77
2024/01/14 04:00:23;;;;;;;48.20;26.48;;;;;;;0.98;100.00;101344.38;5050013;28;20037;-77
2024/01/14 04:02:49;;;;;;;50.15;24.15;;;;;;;0.98;100.00;101347.00;5050287;28;20055;-77
2024/01/14 04:05:14;;;;;;;48.35;22.00;;;;;;;0.97;100.00;101345.31;5050061;28;20048;-77
2024/01/14 04:07:39;;;;;;;53.65;30.88;;;;;;;0.98;100.00;101347.81;5048945;28;20037;-78
2024/01/14 04:10:05;;;;;;;50.33;22.40;;;;;;;0.96;100.00;101339.22;5050238;28;20468;-77
2024/01/14 04:12:30;;;;;;;49.97;25.27;;;;;;;0.97;100.00;101340.91;5050283;28;20025;-78
2024/01/14 04:14:56;;;;;;;49.25;23.55;;;;;;;0.95;100.00;101336.72;5050258;28;20140;-77
2024/01/14 04:17:21;;;;;;;52.25;23.58;;;;;;;0.93;100.00;101328.13;5050076;28;20057;-77
2024/01/14 04:19:46;;;;;;;47.70;24.30;;;;;;;0.89;100.00;101324.91;5048751;28;20484;-77
2024/01/14 04:22:12;;;;;;;46.58;26.60;;;;;;;0.89;100.00;101322.28;5050236;28;20408;-78
2024/01/14 04:24:38;;;;;;;56.92;27.63;;;;;;;0.91;100.00;101328.25;5050055;28;20067;-77
2024/01/14 04:27:04;;;;;;;57.80;30.10;;;;;;;0.92;100.00;101329.06;5048662;28;20032;-77
2024/01/14 04:29:29;;;;;;;46.83;24.13;;;;;;;0.93;100.00;101326.34;5049885;28;20029;-77
2024/01/14 04:31:54;;;;;;;45.75;21.20;;;;;;;0.88;100.00;101323.25;5048734;28;20033;-77
2024/01/14 04:34:20;;;;;;;44.90;22.10;;;;;;;0.87;100.00;101322.41;5049827;28;20091;-77
2024/01/14 04:36:45;;;;;;;44.65;21.20;;;;;;;0.83;100.00;101317.53;5049984;28;20468;-77
2024/01/14 04:39:10;;;;;;;48.72;21.63;;;;;;;0.87;100.00;101326.84;5048453;28;20533;-77
2024/01/14 04:41:36;;;;;;;49.90;24.58;;;;;;;0.87;100.00;101322.41;5049863;28;20415;-77
2024/01/14 04:44:02;;;;;;;49.53;24.17;;;;;;;0.83;100.00;101318.34;5049916;28;20029;-77
2024/01/14 04:46:27;;;;;;;53.22;28.55;;;;;;;0.83;100.00;101315.72;5049930;28;20115;-77
2024/01/14 04:48:52;;;;;;;54.88;23.73;;;;;;;0.83;100.00;101302.59;5049599;28;20021;-77
2024/01/14 04:51:18;;;;;;;46.53;24.42;;;;;;;0.82;100.00;101306.19;5049648;28;20033;-77
2024/01/14 04:53:44;;;;;;;49.88;23.98;;;;;;;0.79;100.00;101297.75;5049750;28;20468;-77
2024/01/14 04:56:10;;;;;;;40.92;21.52;;;;;;;0.78;100.00;101298.66;5050014;28;20029;-77
2024/01/14 04:58:36;;;;;;;43.08;22.80;;;;;;;0.77;100.00;101294.38;5049631;28;20112;-77
2024/01/14 05:01:02;;;;;;;44.38;22.20;;;;;;;0.76;100.00;101293.56;5048519;28;20480;-77
2024/01/14 05:03:27;;;;;;;49.45;24.60;;;;;;;0.77;100.00;101297.00;5048039;28;20037;-77
2024/01/14 05:05:54;;;;;;;49.90;24.00;;;;;;;0.73;100.00;101291.16;5049629;28;20049;-77
2024/01/14 05:08:19;;;;;;;46.85;23.05;;;;;;;0.61;100.00;101277.22;5049647;28;20041;-77
2024/01/14 05:10:44;;;;;;;51.08;23.60;;;;;;;0.71;100.00;101289.59;5052747;28;20037;-77
2024/01/14 05:13:10;;;;;;;43.55;20.50;;;;;;;0.68;100.00;101284.59;5053544;28;20033;-77
2024/01/14 05:15:35;;;;;;;42.88;21.58;;;;;;;0.69;100.00;101286.28;5053398;28;20035;-77
2024/01/14 05:18:01;;;;;;;42.28;21.35;;;;;;;0.70;100.00;101277.44;5053447;28;20033;-77
2024/01/14 05:20:26;;;;;;;43.75;19.58;;;;;;;0.68;100.00;101282.81;5052053;28;20112;-77
2024/01/14 05:22:51;;;;;;;43.35;22.58;;;;;;;0.64;100.00;101274.34;5053367;28;20032;-77
2024/01/14 05:25:17;;;;;;;43.65;22.35;;;;;;;0.65;100.00;101278.66;5051995;28;20025;-77
2024/01/14 05:27:42;;;;;;;43.13;17.95;;;;;;;0.66;100.00;101274.25;5053228;28;20567;-77
2024/01/14 05:30:08;;;;;;;41.92;21.20;;;;;;;0.66;100.00;101279.50;5040100;28;20064;-78
2024/01/14 05:32:33;;;;;;;33.97;15.45;;;;;;;0.66;100.00;101279.50;5053000;28;20090;-77
2024/01/14 05:34:59;;;;;;;39.72;16.52;;;;;;;0.65;100.00;101275.19;5051390;28;20045;-77
2024/01/14 05:37:24;;;;;;;35.60;16.75;;;;;;;0.62;100.00;101273.63;5052865;28;20039;-77
2024/01/14 05:39:49;;;;;;;38.92;17.02;;;;;;;0.63;100.00;101269.25;5051510;28;20126;-77
2024/01/14 05:42:15;;;;;;;34.10;16.80;;;;;;;0.60;100.00;101266.84;5052880;28;20450;-77
2024/01/14 05:44:40;;;;;;;35.25;16.77;;;;;;;0.60;100.00;101261.59;5052666;28;20021;-77
2024/01/14 05:47:05;;;;;;;35.42;17.10;;;;;;;0.56;100.00;101249.69;5052878;28;20093;-77
2024/01/14 05:49:31;;;;;;;40.30;18.70;;;;;;;0.60;100.00;101253.72;5051591;28;20028;-77
2024/01/14 05:51:56;;;;;;;38.95;17.02;;;;;;;0.55;100.00;101246.22;5052892;28;20021;-77
2024/01/14 05:54:22;;;;;;;40.95;18.20;;;;;;;0.55;100.00;101258.50;5052731;28;20400;-78
2024/01/14 05:56:47;;;;;;;33.78;14.95;;;;;;;0.51;100.00;101249.22;5053019;28;20037;-77
2024/01/14 05:59:13;;;;;;;31.48;15.77;;;;;;;0.54;100.00;101247.16;5052377;28;20036;-77
2024/01/14 06:01:38;;;;;;;33.25;16.65;;;;;;;0.54;100.00;101243.72;5052196;28;20057;-78
2024/01/14 06:04:04;;;;;;;38.13;17.67;;;;;;;0.49;100.00;101238.81;5034309;28;20064;-77
2024/01/14 06:06:29;;;;;;;37.75;17.30;;;;;;;0.54;100.00;101236.66;5052359;28;20045;-77
2024/01/14 06:08:55;;;;;;;38.15;19.50;;;;;;;0.51;100.00;101222.97;5052443;28;20083;-77
2024/01/14 06:11:20;;;;;;;37.65;19.88;;;;;;;0.55;100.00;101237.50;5052112;28;20519;-78
2024/01/14 06:13:46;;;;;;;36.17;16.55;;;;;;;0.54;100.00;101228.78;5052230;28;20056;-77
2024/01/14 06:16:11;;;;;;;38.17;19.17;;;;;;;0.51;100.00;101228.22;5052059;28;20473;-78
2024/01/14 06:18:39;;;;;;;37.95;16.98;;;;;;;0.49;100.00;101224.88;5050607;28;20396;-77
2024/01/14 06:21:04;;;;;;;39.53;17.27;;;;;;;0.46;100.00;101228.56;5051333;28;20391;-78
2024/01/14 06:23:29;;;;;;;41.47;16.88;;;;;;;0.44;100.00;101223.44;5052079;28;20112;-78
2024/01/14 06:25:55;;;;;;;39.33;17.45;;;;;;;0.43;100.00;101224.41;5051802;28;20043;-78
2024/01/14 06:28:21;;;;;;;40.53;19.23;;;;;;;0.46;100.00;101222.50;5052124;28;20108;-78
2024/01/14 06:30:47;;;;;;;35.97;18.55;;;;;;;0.44;100.00;101212.13;5051906;28;20147;-78
2024/01/14 06:33:13;;;;;;;39.78;18.60;;;;;;;0.39;100.00;101209.88;5051762;28;20057;-78
2024/01/14 06:35:38;;;;;;;44.03;19.45;;;;;;;0.43;100.00;101213.91;5051851;28;20051;-78
2024/01/14 06:38:04;;;;;;;44.53;19.20;;;;;;;0.42;100.00;101208.81;5051877;28;20025;-78
2024/01/14 06:40:29;;;;;;;41.60;18.05;;;;;;;0.46;100.00;101204.13;5050161;28;20064;-78
2024/01/14 06:42:55;;;;;;;43.63;19.42;;;;;;;0.46;100.00;101201.50;5051265;28;20151;-78
2024/01/14 06:45:21;;;;;;;34.78;18.13;;;;;;;0.44;100.00;101199.00;5051766;28;20097;-78
2024/01/14 06:47:46;;;;;;;39.75;18.75;;;;;;;0.48;100.00;101199.59;5051608;28;20040;-78
2024/01/14 06:50:13;;;;;;;37.97;21.05;;;;;;;0.48;100.00;101204.84;5051738;28;20025;-78
2024/01/14 06:52:38;;;;;;;36.80;17.60;;;;;;;0.50;100.00;101200.28;5051436;28;20021;-78
2024/01/14 06:55:04;;;;;;;39.67;18.08;;;;;;;0.51;100.00;101184.44;5051268;28;20494;-78
2024/01/14 06:57:31;;;;;;;38.40;18.48;;;;;;;0.50;100.00;101187.16;5050939;28;20098;-77
2024/01/14 06:59:57;;;;;;;53.40;19.85;;;;;;;0.51;100.00;101187.06;5051378;28;20043;-78
2024/01/14 07:02:22;;;;;;;43.65;20.13;;;;;;;0.50;100.00;101179.31;5051323;28;20029;-78
2024/01/14 07:04:47;;;;;;;36.05;18.13;;;;;;;0.52;100.00;101183.47;5051065;28;20107;-78
2024/01/14 07:07:13;;;;;;;37.80;19.70;;;;;;;0.52;100.00;101182.63;5050109;28;20033;-78
2024/01/14 07:09:38;;;;;;;37.55;18.50;;;;;;;0.53;100.00;101173.84;5049632;28;20032;-78
2024/01/14 07:12:04;;;;;;;31.45;15.50;;;;;;;0.48;100.00;101170.75;5051111;28;20036;-78
2024/01/14 07:14:29;;;;;;;39.25;16.60;;;;;;;0.52;100.00;101178.22;5049438;28;20040;-78
2024/01/14 07:16:54;;;;;;;43.30;18.30;;;;;;;0.53;100.00;101168.59;5051235;28;20036;-78
2024/01/14 07:19:20;;;;;;;38.30;18.00;;;;;;;0.49;100.00;101172.41;5050686;28;20121;-78
2024/01/14 07:21:45;;;;;;;36.75;13.88;;;;;;;0.51;100.00;101171.31;5049485;28;20182;-78
2024/01/14 07:24:10;;;;;;;46.35;22.30;;;;;;;0.50;100.00;101174.06;5050669;28;20040;-78
2024/01/14 07:26:36;;;;;;;34.63;16.85;;;;;;;0.49;100.00;101175.84;5032884;28;20052;-78
2024/01/14 07:29:01;;;;;;;37.00;17.67;;;;;;;0.47;100.00;101176.94;5050641;28;20025;-78
2024/01/14 07:31:30;;;;;;;34.80;16.40;;;;;;;0.48;100.00;101174.19;5050466;28;20471;-78
2024/01/14 07:33:57;;;;;;;33.03;16.10;;;;;;;0.51;100.00;101181.00;5049710;28;20362;-78
2024/01/14 07:36:22;;;;;;;40.20;16.00;;;;;;;0.48;100.00;101178.63;5050488;28;20036;-78
2024/01/14 07:38:49;;;;;;;34.85;15.35;;;;;;;0.48;100.00;101178.63;5050402;28;20048;-78
2024/01/14 07:41:15;;;;;;;37.30;16.48;;;;;;;0.51;100.00;101183.59;5050455;28;20035;-78
2024/01/14 07:43:41;;;;;;;33.58;14.05;;;;;;;0.51;100.00;101187.06;5049260;28;20477;-77
2024/01/14 07:46:07;;;;;;;35.63;17.90;;;;;;;0.49;100.00;101175.84;5050315;28;20097;-78
2024/01/14 07:48:33;;;;;;;37.22;17.60;;;;;;;0.52;100.00;101177.41;5049120;28;20063;-78
2024/01/14 07:50:59;;;;;;;37.15;15.15;;;;;;;0.47;100.00;101174.31;5050086;28;20037;-78
2024/01/14 07:53:24;;;;;;;38.28;16.58;;;;;;;0.44;100.00;101172.75;5050297;28;20033;-78
2024/01/14 07:55:50;;;;;;;35.58;16.27;;;;;;;0.48;100.00;101179.44;5048731;28;20033;-78
2024/01/14 07:58:15;;;;;;;42.35;19.75;;;;;;;0.47;100.00;101184.81;5050114;28;20384;-78
2024/01/14 08:00:41;;;;;;;38.15;18.30;;;;;;;0.46;100.00;101176.09;5050052;28;20059;-78
2024/01/14 08:03:07;;;;;;;45.38;20.92;;;;;;;0.48;100.00;101176.00;5048301;28;20025;-78
2024/01/14 08:05:32;;;;;;;37.28;18.58;;;;;;;0.49;100.00;101181.09;5047748;28;20158;-78
2024/01/14 08:07:58;;;;;;;45.22;19.17;;;;;;;0.50;100.00;101184.56;5049882;28;20025;-77
2024/01/14 08:10:23;;;;;;;35.08;16.60;;;;;;;0.51;100.00;101192.31;5049951;28;20528;-77
2024/01/14 08:12:48;;;;;;;41.30;19.67;;;;;;;0.50;100.00;101176.69;5039381;28;20033;-78
2024/01/14 08:15:14;;;;;;;40.10;19.65;;;;;;;0.50;100.00;101177.53;5049487;28;20063;-78
2024/01/14 08:17:40;;;;;;;41.90;17.42;;;;;;;0.54;100.00;101175.47;5047300;28;20393;-78
2024/01/14 08:20:06;;;;;;;44.15;18.00;;;;;;;0.55;100.00;101185.88;5049002;28;20029;-77
2024/01/14 08:22:32;;;;;;;37.60;18.65;;;;;;;0.55;100.00;101178.00;5048922;28;20033;-78
2024/01/14 08:24:57;;;;;;;37.72;18.25;;;;;;;0.55;100.00;101170.13;5048847;28;20029;-77
2024/01/14 08:27:23;;;;;;;34.40;15.70;;;;;;;0.56;100.00;101181.44;5049537;28;20029;-77
2024/01/14 08:29:48;;;;;;;44.42;18.92;;;;;;;0.57;100.00;101181.31;5048683;28;20025;-78
2024/01/14 08:32:15;;;;;;;38.28;18.60;;;;;;;0.58;100.00;101174.28;5049534;28;20051;-78
2024/01/14 08:34:40;;;;;;;38.08;17.77;;;;;;;0.53;100.00;101166.78;5049012;28;20432;-77
2024/01/14 08:37:05;;;;;;;39.40;16.05;;;;;;;0.59;100.00;101176.78;5049435;28;20108;-77
2024/01/14 08:39:31;;;;;;;35.67;19.63;;;;;;;0.60;100.00;101170.59;5049331;28;20051;-77
2024/01/14 08:41:56;;;;;;;37.35;16.40;;;;;;;0.60;100.00;101160.09;5048896;28;20032;-77
2024/01/14 08:44:21;;;;;;;36.67;18.17;;;;;;;0.63;100.00;101165.09;5048479;28;20471;-77
2024/01/14 08:46:48;;;;;;;38.03;17.13;;;;;;;0.63;100.00;101153.75;5053128;28;20400;-77
2024/01/14 08:49:16;;;;;;;38.83;17.40;;;;;;;0.60;100.00;101144.34;5051687;28;20033;-77
2024/01/14 08:51:41;;;;;;;35.67;16.55;;;;;;;0.66;100.00;101153.50;5052883;28;20041;-77
2024/01/14 08:54:07;;;;;;;37.97;16.25;;;;;;;0.67;100.00;101149.91;5052779;28;20052;-76
2024/01/14 08:56:32;;;;;;;42.60;18.88;;;;;;;0.67;100.00;101151.72;5052424;28;20040;-77
2024/01/14 08:58:58;;;;;;;37.03;16.30;;;;;;;0.68;100.00;101148.94;5051532;28;20484;-77
2024/01/14 09:01:24;;;;;;;38.97;16.75;;;;;;;0.68;100.00;101146.31;5046140;28;20067;-77
2024/01/14 09:03:49;;;;;;;35.40;19.08;;;;;;;0.71;100.00;101143.47;5051688;28;20028;-77
2024/01/14 09:06:15;;;;;;;36.72;16.02;;;;;;;0.72;100.00;101147.75;5053088;28;20413;-78
2024/01/14 09:08:41;;;;;;;37.03;18.25;;;;;;;0.74;100.00;101145.84;5053045;28;20484;-78
2024/01/14 09:11:07;;;;;;;37.45;17.42;;;;;;;0.72;100.00;101146.91;5052787;28;20025;-78
2024/01/14 09:13:33;;;;;;;36.92;16.25;;;;;;;0.75;100.00;101151.91;5051604;28;20036;-77
2024/01/14 09:15:59;;;;;;;37.70;18.15;;;;;;;0.73;100.00;101149.41;5052623;28;20033;-78
2024/01/14 09:18:25;;;;;;;40.40;17.80;;;;;;;0.77;100.00;101145.59;5052491;28;20037;-74
2024/01/14 09:20:50;;;;;;;39.00;17.52;;;;;;;0.78;100.00;101141.97;5053051;28;20025;-73
2024/01/14 09:23:16;;;;;;;36.95;18.17;;;;;;;0.79;100.00;101142.84;5052736;28;20036;-77
2024/01/14 09:25:41;;;;;;;41.00;18.42;;;;;;;0.77;100.00;101132.44;5052895;28;20039;-77
2024/01/14 09:28:07;;;;;;;40.10;17.10;;;;;;;0.79;100.00;101141.03;5052944;28;20060;-77
2024/01/14 09:30:32;;;;;;;38.00;16.13;;;;;;;0.79;100.00;101137.59;5052927;28;20361;-77
2024/01/14 09:32:58;;;;;;;37.80;18.63;;;;;;;0.79;100.00;101133.16;5052732;28;20037;-76
2024/01/14 09:35:23;;;;;;;35.53;16.27;;;;;;;0.77;100.00;101124.56;5051298;28;20037;-77
2024/01/14 09:37:50;;;;;;;36.85;17.10;;;;;;;0.84;100.00;101133.63;5051262;28;20032;-76
2024/01/14 09:40:18;;;;;;;38.50;16.90;;;;;;;0.84;100.00;101119.66;5052354;28;20029;-76
2024/01/14 09:42:44;;;;;;;42.95;16.90;;;;;;;0.91;100.00;101120.81;5052500;28;20036;-76
2024/01/14 09:45:10;;;;;;;34.47;14.15;;;;;;;0.93;100.00;101123.31;5052493;28;20056;-77
2024/01/14 09:47:37;;;;;;;37.15;17.15;;;;;;;0.89;100.00;101109.59;5051170;28;20079;-76
2024/01/14 09:50:03;;;;;;;36.20;15.13;;;;;;;0.84;100.00;101099.50;5052428;28;20380;-77
2024/01/14 09:52:32;;;;;;;31.77;15.75;;;;;;;0.97;100.00;101114.22;5052337;28;20071;-79
2024/01/14 09:54:58;;;;;;;42.13;19.88;;;;;;;0.96;100.00;101095.00;5050567;28;20025;-77
2024/01/14 09:57:24;;;;;;;41.90;19.30;;;;;;;1.00;100.00;101103.47;5051006;28;20103;-77
2024/01/14 09:59:51;;;;;;;35.28;16.35;;;;;;;1.01;100.00;101105.94;5051934;28;20031;-77
2024/01/14 10:02:17;;;;;;;44.97;17.30;;;;;;;0.92;100.00;101101.47;5051977;28;20029;-77
2024/01/14 10:04:43;;;;;;;37.80;18.85;;;;;;;1.01;100.00;101102.50;5050398;28;20056;-77
2024/01/14 10:07:09;;;;;;;36.15;16.05;;;;;;;1.00;100.00;101100.84;5051758;28;20044;-77
2024/01/14 10:09:35;;;;;;;41.47;16.95;;;;;;;1.03;100.00;101095.34;5050891;28;20392;-77
2024/01/14 10:12:01;;;;;;;36.83;17.45;;;;;;;1.04;100.00;101092.56;5050160;28;20488;-77
2024/01/14 10:14:27;;;;;;;32.85;15.98;;;;;;;1.05;100.00;101082.91;5051810;28;20040;-77
2024/01/14 10:16:54;;;;;;;38.83;18.30;;;;;;;1.12;100.00;101086.66;5051473;28;20029;-77
2024/01/14 10:19:20;;;;;;;39.00;18.75;;;;;;;1.19;100.00;101087.00;5051061;28;20360;-76
2024/01/14 10:21:45;;;;;;;35.92;16.35;;;;;;;1.22;100.00;101079.66;5051062;28;20028;-76
2024/01/14 10:24:10;;;;;;;36.67;16.77;;;;;;;1.24;100.00;101074.31;5051568;28;20036;-76
2024/01/14 10:26:36;;;;;;;33.45;18.90;;;;;;;1.19;100.00;101060.72;5050557;28;20029;-76
2024/01/14 10:29:03;;;;;;;41.20;17.27;;;;;;;1.28;100.00;101065.19;5050527;28;20388;-76
2024/01/14 10:31:30;;;;;;;35.65;16.33;;;;;;;1.33;100.00;101064.78;5051375;28;20032;-76
2024/01/14 10:33:57;;;;;;;42.08;16.05;;;;;;;1.35;100.00;101065.50;5051086;28;20389;-76
2024/01/14 10:36:28;;;;;;;42.05;18.05;;;;;;;1.37;100.00;101071.47;5051505;28;20033;-76
2024/01/14 10:38:57;;;;;;;37.80;16.00;;;;;;;1.36;100.00;101061.91;5051296;28;20056;-76
2024/01/14 10:41:23;;;;;;;34.90;16.17;;;;;;;1.37;100.00;101053.06;5051416;28;20055;-76
2024/01/14 10:43:48;;;;;;;34.60;15.43;;;;;;;1.41;100.00;101047.41;5051414;28;20468;-76
2024/01/14 10:46:15;;;;;;;33.80;15.32;;;;;;;1.40;100.00;101044.91;5051357;28;20035;-75
2024/01/14 10:48:41;;;;;;;39.53;16.63;;;;;;;1.45;100.00;101046.19;5050109;28;20033;-77
2024/01/14 10:51:10;;;;;;;34.92;16.70;;;;;;;1.42;100.00;101043.81;5051482;28;20047;-78
2024/01/14 10:54:07;;;;;;;32.20;15.25;;;;;;;1.45;100.00;101043.56;5051169;28;20052;-78
2024/01/14 10:56:39;;;;;;;36.35;15.48;;;;;;;1.41;100.00;101034.25;5051644;28;20081;-78
2024/01/14 10:59:07;;;;;;;33.72;15.15;;;;;;;1.41;100.00;101034.25;5050955;28;20543;-78
2024/01/14 11:01:35;;;;;;;31.48;12.68;;;;;;;1.37;100.00;101027.63;5050879;28;20036;-78
2024/01/14 11:04:01;;;;;;;34.65;15.70;;;;;;;1.35;100.00;101016.41;5049872;28;20101;-78